sensor_id;sensor_type;location;lat;lon;timestamp;pressure;altitude;pressure_sealevel;temperature;humidity
20228;BME280;12195;55.790;37.572;2023-06-14T00:02:46;100127.03;;;14.97;48.12
20228;BME280;12195;55.790;37.572;2023-06-14T00:05:18;100127.67;;;14.74;48.78
20228;BME280;12195;55.790;37.572;2023-06-14T00:08:02;100121.20;;;14.92;48.58
20228;BME280;12195;55.790;37.572;2023-06-14T00:10:37;100115.16;;;14.64;49.08
20228;BME280;12195;55.790;37.572;2023-06-14T00:13:21;100120.95;;;14.83;49.14
20228;BME280;12195;55.790;37.572;2023-06-14T00:15:53;100136.58;;;14.59;49.95
20228;BME280;12195;55.790;37.572;2023-06-14T00:18:36;100130.31;;;14.74;49.61
20228;BME280;12195;55.790;37.572;2023-06-14T00:21:09;100121.41;;;14.49;49.99
20228;BME280;12195;55.790;37.572;2023-06-14T00:23:42;100125.32;;;14.43;50.36
20228;BME280;12195;55.790;37.572;2023-06-14T00:26:24;100129.52;;;14.60;50.43
20228;BME280;12195;55.790;37.572;2023-06-14T00:28:58;100130.11;;;14.37;50.15
20228;BME280;12195;55.790;37.572;2023-06-14T00:31:40;100129.92;;;14.54;50.16
20228;BME280;12195;55.790;37.572;2023-06-14T00:34:12;100133.89;;;14.33;50.21
20228;BME280;12195;55.790;37.572;2023-06-14T00:36:55;100130.97;;;14.51;50.70
20228;BME280;12195;55.790;37.572;2023-06-14T00:39:27;100134.11;;;14.30;51.11
20228;BME280;12195;55.790;37.572;2023-06-14T00:42:09;100110.03;;;14.20;50.64
20228;BME280;12195;55.790;37.572;2023-06-14T00:44:42;100110.03;;;14.20;50.64
20228;BME280;12195;55.790;37.572;2023-06-14T00:47:24;100132.84;;;14.49;50.58
20228;BME280;12195;55.790;37.572;2023-06-14T00:50:10;100126.70;;;14.49;50.48
20228;BME280;12195;55.790;37.572;2023-06-14T00:52:56;100126.14;;;14.44;51.40
20228;BME280;12195;55.790;37.572;2023-06-14T00:55:40;100105.52;;;14.22;51.22
20228;BME280;12195;55.790;37.572;2023-06-14T00:58:14;100105.52;;;14.22;51.22
20228;BME280;12195;55.790;37.572;2023-06-14T01:00:57;100134.44;;;14.52;51.23
20228;BME280;12195;55.790;37.572;2023-06-14T01:03:29;100122.77;;;14.28;51.13
20228;BME280;12195;55.790;37.572;2023-06-14T01:06:24;100131.84;;;14.24;51.02
20228;BME280;12195;55.790;37.572;2023-06-14T01:09:20;100132.20;;;14.46;50.85
20228;BME280;12195;55.790;37.572;2023-06-14T01:12:24;100120.95;;;14.42;50.81
20228;BME280;12195;55.790;37.572;2023-06-14T01:14:55;100121.27;;;14.24;51.18
20228;BME280;12195;55.790;37.572;2023-06-14T01:17:31;100105.11;;;14.14;51.43
20228;BME280;12195;55.790;37.572;2023-06-14T01:20:05;100123.82;;;14.25;51.12
20228;BME280;12195;55.790;37.572;2023-06-14T01:22:53;100126.05;;;14.45;51.17
20228;BME280;12195;55.790;37.572;2023-06-14T01:25:26;100116.66;;;14.27;51.42
20228;BME280;12195;55.790;37.572;2023-06-14T01:28:09;100125.96;;;14.47;51.34
20228;BME280;12195;55.790;37.572;2023-06-14T01:30:51;100122.59;;;14.31;51.49
20228;BME280;12195;55.790;37.572;2023-06-14T01:33:22;100091.81;;;14.16;51.70
20228;BME280;12195;55.790;37.572;2023-06-14T01:36:08;100134.98;;;14.57;51.32
20228;BME280;12195;55.790;37.572;2023-06-14T01:38:42;100131.75;;;14.39;51.53
20228;BME280;12195;55.790;37.572;2023-06-14T01:41:25;100132.92;;;14.62;51.36
20228;BME280;12195;55.790;37.572;2023-06-14T01:43:59;100133.89;;;14.47;51.20
20228;BME280;12195;55.790;37.572;2023-06-14T01:46:32;100131.61;;;14.55;51.07
20228;BME280;12195;55.790;37.572;2023-06-14T01:49:17;100132.09;;;14.74;51.00
20228;BME280;12195;55.790;37.572;2023-06-14T01:51:50;100137.98;;;14.65;51.02
20228;BME280;12195;55.790;37.572;2023-06-14T01:54:32;100136.59;;;14.86;50.91
20228;BME280;12195;55.790;37.572;2023-06-14T01:57:16;100136.20;;;14.92;51.02
20228;BME280;12195;55.790;37.572;2023-06-14T01:59:49;100123.02;;;14.78;50.37
20228;BME280;12195;55.790;37.572;2023-06-14T02:02:33;100139.20;;;15.00;50.29
20228;BME280;12195;55.790;37.572;2023-06-14T02:05:17;100135.21;;;15.07;50.25
20228;BME280;12195;55.790;37.572;2023-06-14T02:07:51;100135.45;;;14.90;50.36
20228;BME280;12195;55.790;37.572;2023-06-14T02:10:34;100129.50;;;15.13;50.39
20228;BME280;12195;55.790;37.572;2023-06-14T02:13:07;100129.58;;;14.99;50.12
20228;BME280;12195;55.790;37.572;2023-06-14T02:15:53;100132.66;;;15.05;50.32
20228;BME280;12195;55.790;37.572;2023-06-14T02:18:36;100130.38;;;15.26;50.36
20228;BME280;12195;55.790;37.572;2023-06-14T02:21:18;100135.37;;;15.30;50.23
20228;BME280;12195;55.790;37.572;2023-06-14T02:24:00;100144.84;;;15.34;50.00
20228;BME280;12195;55.790;37.572;2023-06-14T02:26:44;100134.68;;;15.41;49.96
20228;BME280;12195;55.790;37.572;2023-06-14T02:29:17;100111.32;;;15.21;50.67
20228;BME280;12195;55.790;37.572;2023-06-14T02:31:50;100129.98;;;15.32;50.32
20228;BME280;12195;55.790;37.572;2023-06-14T02:34:23;100125.35;;;15.35;51.36
20228;BME280;12195;55.790;37.572;2023-06-14T02:37:05;100123.59;;;15.61;51.03
20228;BME280;12195;55.790;37.572;2023-06-14T02:39:38;100126.41;;;15.45;50.75
20228;BME280;12195;55.790;37.572;2023-06-14T02:42:22;100115.72;;;15.47;50.22
20228;BME280;12195;55.790;37.572;2023-06-14T02:44:55;100115.72;;;15.47;50.22
20228;BME280;12195;55.790;37.572;2023-06-14T02:47:37;100133.42;;;15.84;49.62
20228;BME280;12195;55.790;37.572;2023-06-14T02:50:19;100138.42;;;15.88;49.53
20228;BME280;12195;55.790;37.572;2023-06-14T02:52:53;100114.69;;;15.62;48.79
20228;BME280;12195;55.790;37.572;2023-06-14T02:55:36;100145.61;;;15.99;49.04
20228;BME280;12195;55.790;37.572;2023-06-14T02:58:11;100138.62;;;15.85;48.73
20228;BME280;12195;55.790;37.572;2023-06-14T03:00:56;100147.30;;;16.13;48.69
20228;BME280;12195;55.790;37.572;2023-06-14T03:03:29;100136.95;;;15.97;48.36
20228;BME280;12195;55.790;37.572;2023-06-14T03:06:02;100143.48;;;16.04;48.49
20228;BME280;12195;55.790;37.572;2023-06-14T03:08:46;100148.64;;;16.31;48.30
20228;BME280;12195;55.790;37.572;2023-06-14T03:11:30;100154.36;;;16.37;48.46
20228;BME280;12195;55.790;37.572;2023-06-14T03:14:04;100150.89;;;16.24;48.54
20228;BME280;12195;55.790;37.572;2023-06-14T03:16:51;100148.72;;;16.54;47.99
20228;BME280;12195;55.790;37.572;2023-06-14T03:19:26;100146.20;;;16.40;48.15
20228;BME280;12195;55.790;37.572;2023-06-14T03:22:10;100153.79;;;16.70;47.93
20228;BME280;12195;55.790;37.572;2023-06-14T03:24:53;100155.16;;;16.75;47.37
20228;BME280;12195;55.790;37.572;2023-06-14T03:27:27;100145.64;;;16.60;47.10
20228;BME280;12195;55.790;37.572;2023-06-14T03:30:10;100151.58;;;16.87;47.24
20228;BME280;12195;55.790;37.572;2023-06-14T03:32:43;100150.89;;;16.73;47.52
20228;BME280;12195;55.790;37.572;2023-06-14T03:35:16;100144.19;;;16.80;47.32
20228;BME280;12195;55.790;37.572;2023-06-14T03:38:00;100145.55;;;17.09;47.16
20228;BME280;12195;55.790;37.572;2023-06-14T03:40:34;100136.59;;;16.99;46.82
20228;BME280;12195;55.790;37.572;2023-06-14T03:43:16;100147.23;;;17.33;45.60
20228;BME280;12195;55.790;37.572;2023-06-14T03:45:49;100144.14;;;17.16;46.17
20228;BME280;12195;55.790;37.572;2023-06-14T03:48:32;100143.05;;;17.42;46.31
20228;BME280;12195;55.790;37.572;2023-06-14T03:51:05;100138.14;;;17.25;45.81
20228;BME280;12195;55.790;37.572;2023-06-14T03:53:49;100139.58;;;17.52;45.12
20228;BME280;12195;55.790;37.572;2023-06-14T03:56:34;100139.36;;;17.55;44.75
20228;BME280;12195;55.790;37.572;2023-06-14T03:59:09;100143.38;;;17.37;44.59
20228;BME280;12195;55.790;37.572;2023-06-14T04:01:54;100145.90;;;17.62;44.75
20228;BME280;12195;55.790;37.572;2023-06-14T04:04:28;100140.92;;;17.47;44.69
20228;BME280;12195;55.790;37.572;2023-06-14T04:07:13;100151.10;;;17.75;44.19
20228;BME280;12195;55.790;37.572;2023-06-14T04:09:46;100143.47;;;17.59;44.43
20228;BME280;12195;55.790;37.572;2023-06-14T04:12:31;100151.99;;;17.86;44.04
20228;BME280;12195;55.790;37.572;2023-06-14T04:15:04;100146.16;;;17.70;44.28
20228;BME280;12195;55.790;37.572;2023-06-14T04:17:56;100145.47;;;18.01;44.19
20228;BME280;12195;55.790;37.572;2023-06-14T04:20:30;100142.30;;;17.85;44.10
20228;BME280;12195;55.790;37.572;2023-06-14T04:23:17;100140.75;;;17.94;43.92
20228;BME280;12195;55.790;37.572;2023-06-14T04:26:03;100148.03;;;18.25;43.65
20228;BME280;12195;55.790;37.572;2023-06-14T04:28:35;100143.68;;;18.13;43.44
20228;BME280;12195;55.790;37.572;2023-06-14T04:31:22;100143.94;;;18.43;43.18
20228;BME280;12195;55.790;37.572;2023-06-14T04:34:00;100138.59;;;18.10;43.60
20228;BME280;12195;55.790;37.572;2023-06-14T04:36:48;100138.34;;;18.57;43.29
20228;BME280;12195;55.790;37.572;2023-06-14T04:39:36;100135.55;;;18.69;42.70
20228;BME280;12195;55.790;37.572;2023-06-14T04:42:18;100138.31;;;18.79;42.50
20228;BME280;12195;55.790;37.572;2023-06-14T04:45:04;100135.36;;;18.93;42.27
20228;BME280;12195;55.790;37.572;2023-06-14T04:47:50;100143.20;;;19.05;41.85
20228;BME280;12195;55.790;37.572;2023-06-14T04:50:24;100128.23;;;18.93;41.16
20228;BME280;12195;55.790;37.572;2023-06-14T04:53:09;100144.81;;;19.28;40.88
20228;BME280;12195;55.790;37.572;2023-06-14T04:55:42;100136.38;;;19.12;40.97
20228;BME280;12195;55.790;37.572;2023-06-14T04:58:26;100137.52;;;19.41;40.56
20228;BME280;12195;55.790;37.572;2023-06-14T05:01:00;100135.72;;;19.31;40.57
20228;BME280;12195;55.790;37.572;2023-06-14T05:03:47;100134.27;;;19.58;40.34
20228;BME280;12195;55.790;37.572;2023-06-14T05:06:30;100131.80;;;19.66;40.08
20228;BME280;12195;55.790;37.572;2023-06-14T05:09:03;100126.53;;;19.55;40.22
20228;BME280;12195;55.790;37.572;2023-06-14T05:11:35;100122.37;;;19.62;39.48
20228;BME280;12195;55.790;37.572;2023-06-14T05:14:20;100128.84;;;19.90;39.16
20228;BME280;12195;55.790;37.572;2023-06-14T05:16:54;100125.80;;;19.74;39.29
20228;BME280;12195;55.790;37.572;2023-06-14T05:19:41;100135.66;;;20.03;39.28
20228;BME280;12195;55.790;37.572;2023-06-14T05:22:26;100131.56;;;19.99;39.24
20228;BME280;12195;55.790;37.572;2023-06-14T05:24:59;100128.17;;;19.97;38.72
20228;BME280;12195;55.790;37.572;2023-06-14T05:27:44;100125.27;;;20.30;38.69
20228;BME280;12195;55.790;37.572;2023-06-14T05:30:17;100128.87;;;20.20;38.28
20228;BME280;12195;55.790;37.572;2023-06-14T05:32:59;100131.53;;;20.50;37.99
20228;BME280;12195;55.790;37.572;2023-06-14T05:35:42;100126.33;;;20.58;37.76
20228;BME280;12195;55.790;37.572;2023-06-14T05:38:26;100124.81;;;20.65;37.50
20228;BME280;12195;55.790;37.572;2023-06-14T05:40:59;100128.58;;;20.53;36.83
20228;BME280;12195;55.790;37.572;2023-06-14T05:43:42;100119.92;;;20.80;37.09
20228;BME280;12195;55.790;37.572;2023-06-14T05:46:27;100124.43;;;20.89;36.81
20228;BME280;12195;55.790;37.572;2023-06-14T05:48:59;100123.84;;;20.76;35.50
20228;BME280;12195;55.790;37.572;2023-06-14T05:51:43;100125.75;;;21.04;36.05
20228;BME280;12195;55.790;37.572;2023-06-14T05:54:28;100129.56;;;21.11;35.39
20228;BME280;12195;55.790;37.572;2023-06-14T05:57:11;100133.20;;;21.19;34.99
20228;BME280;12195;55.790;37.572;2023-06-14T05:59:44;100122.09;;;21.05;34.33
20228;BME280;12195;55.790;37.572;2023-06-14T06:02:28;100136.59;;;21.31;34.50
20228;BME280;12195;55.790;37.572;2023-06-14T06:05:01;100127.86;;;21.19;34.06
20228;BME280;12195;55.790;37.572;2023-06-14T06:07:45;100137.02;;;21.45;34.28
20228;BME280;12195;55.790;37.572;2023-06-14T06:10:17;100137.29;;;21.33;34.17
20228;BME280;12195;55.790;37.572;2023-06-14T06:13:01;100132.48;;;21.55;34.22
20228;BME280;12195;55.790;37.572;2023-06-14T06:15:47;100133.75;;;21.61;34.21
20228;BME280;12195;55.790;37.572;2023-06-14T06:18:20;100134.89;;;21.49;34.23
20228;BME280;12195;55.790;37.572;2023-06-14T06:21:04;100129.97;;;21.73;33.92
20228;BME280;12195;55.790;37.572;2023-06-14T06:23:48;100130.38;;;21.78;33.54
20228;BME280;12195;55.790;37.572;2023-06-14T06:26:33;100130.50;;;21.86;33.29
20228;BME280;12195;55.790;37.572;2023-06-14T06:29:16;100123.59;;;21.93;32.56
20228;BME280;12195;55.790;37.572;2023-06-14T06:31:49;100129.38;;;21.79;32.16
20228;BME280;12195;55.790;37.572;2023-06-14T06:34:33;100133.95;;;22.05;31.97
20228;BME280;12195;55.790;37.572;2023-06-14T06:37:07;100133.69;;;21.99;31.71
20228;BME280;12195;55.790;37.572;2023-06-14T06:39:49;100127.54;;;22.25;32.06
20228;BME280;12195;55.790;37.572;2023-06-14T06:42:22;100124.22;;;22.14;31.58
20228;BME280;12195;55.790;37.572;2023-06-14T06:45:07;100118.33;;;22.37;31.87
20228;BME280;12195;55.790;37.572;2023-06-14T06:47:40;100126.29;;;22.20;30.86
20228;BME280;12195;55.790;37.572;2023-06-14T06:50:22;100121.97;;;22.46;30.98
20228;BME280;12195;55.790;37.572;2023-06-14T06:52:56;100110.77;;;22.33;30.22
20228;BME280;12195;55.790;37.572;2023-06-14T06:55:38;100116.13;;;22.60;30.96
20228;BME280;12195;55.790;37.572;2023-06-14T06:58:23;100115.98;;;22.61;30.53
20228;BME280;12195;55.790;37.572;2023-06-14T07:00:56;100110.55;;;22.44;30.00
20228;BME280;12195;55.790;37.572;2023-06-14T07:03:39;100120.91;;;22.66;29.95
20228;BME280;12195;55.790;37.572;2023-06-14T07:06:23;100115.70;;;22.64;29.58
20228;BME280;12195;55.790;37.572;2023-06-14T07:08:57;100112.84;;;22.39;29.48
20228;BME280;12195;55.790;37.572;2023-06-14T07:11:46;100124.16;;;22.60;29.73
20228;BME280;12195;55.790;37.572;2023-06-14T07:14:19;100106.42;;;22.22;29.26
20228;BME280;12195;55.790;37.572;2023-06-14T07:17:03;100115.84;;;22.63;29.65
20228;BME280;12195;55.790;37.572;2023-06-14T07:19:49;100115.37;;;22.67;29.99
20228;BME280;12195;55.790;37.572;2023-06-14T07:22:34;100110.39;;;22.55;30.64
20228;BME280;12195;55.790;37.572;2023-06-14T07:25:08;100118.18;;;22.48;30.52
20228;BME280;12195;55.790;37.572;2023-06-14T07:27:50;100110.11;;;22.75;30.90
20228;BME280;12195;55.790;37.572;2023-06-14T07:30:23;100099.39;;;22.58;30.25
20228;BME280;12195;55.790;37.572;2023-06-14T07:33:08;100100.72;;;22.89;30.19
20228;BME280;12195;55.790;37.572;2023-06-14T07:35:41;100097.34;;;22.69;29.94
20228;BME280;12195;55.790;37.572;2023-06-14T07:38:26;100104.78;;;22.93;30.27
20228;BME280;12195;55.790;37.572;2023-06-14T07:40:58;100092.66;;;22.71;29.69
20228;BME280;12195;55.790;37.572;2023-06-14T07:43:43;100096.30;;;22.97;30.01
20228;BME280;12195;55.790;37.572;2023-06-14T07:46:16;100092.06;;;22.77;29.83
20228;BME280;12195;55.790;37.572;2023-06-14T07:49:01;100092.77;;;22.97;29.29
20228;BME280;12195;55.790;37.572;2023-06-14T07:51:35;100090.25;;;22.78;29.33
20228;BME280;12195;55.790;37.572;2023-06-14T07:54:17;100104.19;;;22.99;29.84
20228;BME280;12195;55.790;37.572;2023-06-14T07:56:51;100099.25;;;22.77;29.77
20228;BME280;12195;55.790;37.572;2023-06-14T07:59:36;100109.22;;;23.02;30.25
20228;BME280;12195;55.790;37.572;2023-06-14T08:02:21;100099.88;;;23.06;30.14
20228;BME280;12195;55.790;37.572;2023-06-14T08:05:04;100098.91;;;23.07;30.04
20228;BME280;12195;55.790;37.572;2023-06-14T08:07:38;100092.68;;;22.89;29.46
20228;BME280;12195;55.790;37.572;2023-06-14T08:10:23;100099.13;;;23.13;29.60
20228;BME280;12195;55.790;37.572;2023-06-14T08:13:09;100096.83;;;23.18;29.64
20228;BME280;12195;55.790;37.572;2023-06-14T08:15:53;100098.98;;;23.15;29.34
20228;BME280;12195;55.790;37.572;2023-06-14T08:18:27;100092.39;;;23.09;28.75
20228;BME280;12195;55.790;37.572;2023-06-14T08:21:13;100092.87;;;23.40;29.87
20228;BME280;12195;55.790;37.572;2023-06-14T08:23:59;100101.43;;;23.43;29.90
20228;BME280;12195;55.790;37.572;2023-06-14T08:26:32;100089.56;;;23.28;29.85
20228;BME280;12195;55.790;37.572;2023-06-14T08:29:16;100102.63;;;23.66;29.09
20228;BME280;12195;55.790;37.572;2023-06-14T08:31:48;100087.50;;;23.40;28.70
20228;BME280;12195;55.790;37.572;2023-06-14T08:34:32;100099.09;;;23.66;28.66
20228;BME280;12195;55.790;37.572;2023-06-14T08:37:18;100100.61;;;23.68;29.20
20228;BME280;12195;55.790;37.572;2023-06-14T08:39:51;100088.23;;;23.50;28.06
20228;BME280;12195;55.790;37.572;2023-06-14T08:42:36;100087.71;;;23.72;28.19
20228;BME280;12195;55.790;37.572;2023-06-14T08:45:21;100094.78;;;23.73;28.52
20228;BME280;12195;55.790;37.572;2023-06-14T08:47:56;100084.09;;;23.55;28.04
20228;BME280;12195;55.790;37.572;2023-06-14T08:50:45;100089.62;;;23.79;28.52
20228;BME280;12195;55.790;37.572;2023-06-14T08:53:20;100078.14;;;23.69;28.69
20228;BME280;12195;55.790;37.572;2023-06-14T08:56:05;100080.00;;;23.94;28.55
20228;BME280;12195;55.790;37.572;2023-06-14T08:58:44;100070.00;;;23.79;28.37
20228;BME280;12195;55.790;37.572;2023-06-14T09:01:26;100076.39;;;24.03;28.09
20228;BME280;12195;55.790;37.572;2023-06-14T09:03:59;100067.31;;;23.79;27.98
20228;BME280;12195;55.790;37.572;2023-06-14T09:06:42;100070.48;;;24.00;27.85
20228;BME280;12195;55.790;37.572;2023-06-14T09:09:16;100072.98;;;23.76;27.91
20228;BME280;12195;55.790;37.572;2023-06-14T09:11:58;100076.00;;;23.98;27.92
20228;BME280;12195;55.790;37.572;2023-06-14T09:14:33;100074.35;;;23.80;27.74
20228;BME280;12195;55.790;37.572;2023-06-14T09:17:19;100074.22;;;24.07;27.88
20228;BME280;12195;55.790;37.572;2023-06-14T09:19:52;100070.82;;;23.97;27.42
20228;BME280;12195;55.790;37.572;2023-06-14T09:22:39;100070.91;;;24.21;27.10
20228;BME280;12195;55.790;37.572;2023-06-14T09:25:24;100066.75;;;24.26;27.33
20228;BME280;12195;55.790;37.572;2023-06-14T09:28:13;100060.05;;;24.30;27.22
20228;BME280;12195;55.790;37.572;2023-06-14T09:30:56;100059.73;;;24.33;27.17
20228;BME280;12195;55.790;37.572;2023-06-14T09:33:46;100063.78;;;24.37;27.31
20228;BME280;12195;55.790;37.572;2023-06-14T09:36:23;100055.62;;;24.13;27.04
20228;BME280;12195;55.790;37.572;2023-06-14T09:39:08;100067.84;;;24.49;33.91
20228;BME280;12195;55.790;37.572;2023-06-14T09:41:41;100050.22;;;24.05;28.49
20228;BME280;12195;55.790;37.572;2023-06-14T09:44:27;100051.54;;;24.01;28.54
20228;BME280;12195;55.790;37.572;2023-06-14T09:47:00;100045.70;;;23.80;28.46
20228;BME280;12195;55.790;37.572;2023-06-14T09:49:47;100061.80;;;24.06;28.48
20228;BME280;12195;55.790;37.572;2023-06-14T09:52:21;100048.81;;;23.93;28.04
20228;BME280;12195;55.790;37.572;2023-06-14T09:55:11;100052.31;;;24.19;28.19
20228;BME280;12195;55.790;37.572;2023-06-14T09:57:57;100046.12;;;24.27;27.83
20228;BME280;12195;55.790;37.572;2023-06-14T10:00:32;100040.53;;;24.12;26.46
20228;BME280;12195;55.790;37.572;2023-06-14T10:03:21;100043.81;;;24.40;27.16
20228;BME280;12195;55.790;37.572;2023-06-14T10:06:08;100051.89;;;24.48;27.06
20228;BME280;12195;55.790;37.572;2023-06-14T10:08:53;100033.12;;;24.56;26.58
20228;BME280;12195;55.790;37.572;2023-06-14T10:11:28;100035.78;;;24.48;26.87
20228;BME280;12195;55.790;37.572;2023-06-14T10:14:13;100038.88;;;24.69;27.22
20228;BME280;12195;55.790;37.572;2023-06-14T10:17:10;100026.72;;;24.49;27.27
20228;BME280;12195;55.790;37.572;2023-06-14T10:20:14;100019.27;;;24.76;27.48
20228;BME280;12195;55.790;37.572;2023-06-14T10:25:43;100006.98;;;24.74;27.03
20228;BME280;12195;55.790;37.572;2023-06-14T10:28:28;100018.77;;;24.97;27.07
20228;BME280;12195;55.790;37.572;2023-06-14T10:31:13;100018.27;;;24.93;27.05
20228;BME280;12195;55.790;37.572;2023-06-14T10:33:57;100009.52;;;24.91;27.05
20228;BME280;12195;55.790;37.572;2023-06-14T10:36:32;100002.28;;;24.68;26.90
20228;BME280;12195;55.790;37.572;2023-06-14T10:39:17;100015.22;;;24.88;26.64
20228;BME280;12195;55.790;37.572;2023-06-14T10:41:56;100004.97;;;24.68;27.30
20228;BME280;12195;55.790;37.572;2023-06-14T10:44:40;100006.34;;;24.88;26.84
20228;BME280;12195;55.790;37.572;2023-06-14T10:47:33;100003.14;;;24.68;26.70
20228;BME280;12195;55.790;37.572;2023-06-14T10:50:16;99997.27;;;24.97;26.58
20228;BME280;12195;55.790;37.572;2023-06-14T10:52:50;99992.91;;;24.88;26.49
20228;BME280;12195;55.790;37.572;2023-06-14T10:55:36;99996.25;;;25.14;26.58
20228;BME280;12195;55.790;37.572;2023-06-14T10:58:09;99982.16;;;24.96;25.81
20228;BME280;12195;55.790;37.572;2023-06-14T11:00:43;99978.78;;;25.02;26.25
20228;BME280;12195;55.790;37.572;2023-06-14T11:03:43;99994.27;;;25.32;26.61
20228;BME280;12195;55.790;37.572;2023-06-14T11:06:23;99983.45;;;25.48;26.69
20228;BME280;12195;55.790;37.572;2023-06-14T11:09:12;99975.77;;;25.37;26.14
20228;BME280;12195;55.790;37.572;2023-06-14T11:11:56;99983.84;;;26.00;25.98
20228;BME280;12195;55.790;37.572;2023-06-14T11:14:32;99966.95;;;26.89;24.80
20228;BME280;12195;55.790;37.572;2023-06-14T11:17:15;99976.84;;;27.34;24.15
20228;BME280;12195;55.790;37.572;2023-06-14T11:19:47;99974.39;;;28.76;21.60
20228;BME280;12195;55.790;37.572;2023-06-14T11:22:38;99965.99;;;30.62;20.57
20228;BME280;12195;55.790;37.572;2023-06-14T11:25:19;99964.82;;;33.01;18.72
20228;BME280;12195;55.790;37.572;2023-06-14T11:27:52;99946.44;;;35.06;15.76
20228;BME280;12195;55.790;37.572;2023-06-14T11:30:37;99962.60;;;36.95;15.77
20228;BME280;12195;55.790;37.572;2023-06-14T11:33:10;99941.40;;;38.12;13.82
20228;BME280;12195;55.790;37.572;2023-06-14T11:35:55;99952.34;;;39.86;14.01
20228;BME280;12195;55.790;37.572;2023-06-14T11:38:39;99953.56;;;41.02;13.18
20228;BME280;12195;55.790;37.572;2023-06-14T11:41:24;99954.19;;;42.12;12.43
20228;BME280;12195;55.790;37.572;2023-06-14T11:43:57;99945.75;;;42.47;10.84
20228;BME280;12195;55.790;37.572;2023-06-14T11:46:41;99940.79;;;44.02;11.28
20228;BME280;12195;55.790;37.572;2023-06-14T11:49:26;99935.93;;;44.73;10.71
20228;BME280;12195;55.790;37.572;2023-06-14T11:51:59;99934.48;;;44.38;9.22
20228;BME280;12195;55.790;37.572;2023-06-14T11:54:42;99941.60;;;45.78;9.82
20228;BME280;12195;55.790;37.572;2023-06-14T11:57:27;99935.58;;;46.52;9.63
20228;BME280;12195;55.790;37.572;2023-06-14T12:00:00;99931.21;;;45.97;8.18
20228;BME280;12195;55.790;37.572;2023-06-14T12:02:54;99930.81;;;48.01;8.84
20228;BME280;12195;55.790;37.572;2023-06-14T12:05:28;99916.08;;;47.62;7.27
20228;BME280;12195;55.790;37.572;2023-06-14T12:08:14;99934.02;;;49.36;7.59
20228;BME280;12195;55.790;37.572;2023-06-14T12:10:51;99924.54;;;48.69;6.90
20228;BME280;12195;55.790;37.572;2023-06-14T12:13:33;99924.52;;;50.53;7.38
20228;BME280;12195;55.790;37.572;2023-06-14T12:16:08;99908.75;;;49.70;6.39
20228;BME280;12195;55.790;37.572;2023-06-14T12:18:52;99917.61;;;51.69;6.78
20228;BME280;12195;55.790;37.572;2023-06-14T12:21:38;99907.42;;;52.13;6.25
20228;BME280;12195;55.790;37.572;2023-06-14T12:24:27;99907.72;;;52.87;5.83
20228;BME280;12195;55.790;37.572;2023-06-14T12:26:59;99890.69;;;52.28;5.43
20228;BME280;12195;55.790;37.572;2023-06-14T12:29:45;99895.28;;;54.62;5.49
20228;BME280;12195;55.790;37.572;2023-06-14T12:32:28;99906.45;;;52.84;5.82
20228;BME280;12195;55.790;37.572;2023-06-14T12:35:12;99895.09;;;54.17;5.45
20228;BME280;12195;55.790;37.572;2023-06-14T12:37:58;99891.25;;;54.25;5.26
20228;BME280;12195;55.790;37.572;2023-06-14T12:40:31;99879.48;;;52.68;5.04
20228;BME280;12195;55.790;37.572;2023-06-14T12:43:17;99886.40;;;54.41;5.32
20228;BME280;12195;55.790;37.572;2023-06-14T12:46:02;99880.11;;;52.89;5.63
20228;BME280;12195;55.790;37.572;2023-06-14T12:48:35;99870.16;;;53.07;5.06
20228;BME280;12195;55.790;37.572;2023-06-14T12:51:17;99867.11;;;55.45;4.85
20228;BME280;12195;55.790;37.572;2023-06-14T12:54:03;99861.09;;;55.69;4.68
20228;BME280;12195;55.790;37.572;2023-06-14T12:56:36;99861.48;;;53.43;4.68
20228;BME280;12195;55.790;37.572;2023-06-14T12:59:09;99854.22;;;52.68;4.88
20228;BME280;12195;55.790;37.572;2023-06-14T13:01:41;99878.38;;;54.62;4.98
20228;BME280;12195;55.790;37.572;2023-06-14T13:04:26;99869.82;;;53.70;5.06
20228;BME280;12195;55.790;37.572;2023-06-14T13:07:08;99864.95;;;53.36;5.07
20228;BME280;12195;55.790;37.572;2023-06-14T13:09:43;99857.09;;;52.04;5.08
20228;BME280;12195;55.790;37.572;2023-06-14T13:12:27;99867.29;;;53.81;5.15
20228;BME280;12195;55.790;37.572;2023-06-14T13:15:00;99856.82;;;53.04;4.62
20228;BME280;12195;55.790;37.572;2023-06-14T13:17:43;99865.45;;;54.23;4.59
20228;BME280;12195;55.790;37.572;2023-06-14T13:20:17;99857.63;;;52.10;4.72
20228;BME280;12195;55.790;37.572;2023-06-14T13:23:02;99862.86;;;53.18;4.93
20228;BME280;12195;55.790;37.572;2023-06-14T13:25:38;99851.06;;;52.18;4.89
20228;BME280;12195;55.790;37.572;2023-06-14T13:28:21;99856.98;;;54.04;4.79
20228;BME280;12195;55.790;37.572;2023-06-14T13:30:53;99847.72;;;53.38;4.38
20228;BME280;12195;55.790;37.572;2023-06-14T13:33:38;99852.84;;;54.93;4.49
20228;BME280;12195;55.790;37.572;2023-06-14T13:36:11;99836.66;;;53.29;4.32
20228;BME280;12195;55.790;37.572;2023-06-14T13:38:55;99850.44;;;54.34;4.41
20228;BME280;12195;55.790;37.572;2023-06-14T13:41:39;99842.22;;;53.91;4.53
20228;BME280;12195;55.790;37.572;2023-06-14T13:44:21;99842.75;;;53.97;4.53
20228;BME280;12195;55.790;37.572;2023-06-14T13:47:03;99845.33;;;54.21;4.49
20228;BME280;12195;55.790;37.572;2023-06-14T13:49:47;99853.63;;;54.33;4.14
20228;BME280;12195;55.790;37.572;2023-06-14T13:52:30;99846.62;;;54.42;4.04
20228;BME280;12195;55.790;37.572;2023-06-14T13:55:03;99833.13;;;53.32;4.05